Time;durP1;ratioP1;P1;durP2;ratioP2;P2;SDS_P1;SDS_P2;PMS_P1;PMS_P2;Temp;Humidity;BMP_temperature;BMP_pressure;BME280_temperature;BME280_humidity;BME280_pressure;Samples;Min_cycle;Max_cycle;Signal;HPM_P1;HPM_P2
2023/07/10 00:00:51;;;;;;;25.57;23.07;;;20.50;99.90;;;;;;5097169;28;20484;-60
2023/07/10 00:03:19;;;;;;;25.63;23.37;;;20.50;99.90;;;;;;5096858;28;20502;-60
2023/07/10 00:05:46;;;;;;;24.73;21.57;;;20.50;99.90;;;;;;5097124;28;20505;-59
2023/07/10 00:08:13;;;;;;;27.37;24.70;;;20.40;99.90;;;;;;5097160;28;20461;-60
2023/07/10 00:10:40;;;;;;;27.10;24.70;;;20.50;99.90;;;;;;5097500;28;20492;-59
2023/07/10 00:13:11;;;;;;;27.30;24.90;;;20.50;99.90;;;;;;5096752;28;20534;-59
2023/07/10 00:15:39;;;;;;;26.80;24.57;;;20.50;99.90;;;;;;5097202;28;20467;-60
2023/07/10 00:18:13;;;;;;;28.50;25.77;;;20.60;99.90;;;;;;5097370;28;20559;-60
2023/07/10 00:20:41;;;;;;;27.27;24.87;;;20.60;99.90;;;;;;5097366;28;20487;-60
2023/07/10 00:23:08;;;;;;;26.17;23.70;;;20.70;99.90;;;;;;5096870;28;20484;-60
2023/07/10 00:25:36;;;;;;;27.97;25.17;;;20.80;99.90;;;;;;5100618;28;20464;-60
2023/07/10 00:28:12;;;;;;;27.20;24.77;;;20.70;99.90;;;;;;5101042;28;20478;-60
2023/07/10 00:30:41;;;;;;;26.30;23.80;;;20.70;99.90;;;;;;5100779;28;20606;-60
2023/07/10 00:33:11;;;;;;;26.80;24.00;;;20.70;99.90;;;;;;5100970;28;20460;-60
2023/07/10 00:35:39;;;;;;;26.57;24.07;;;20.80;99.90;;;;;;5100616;28;20456;-60
2023/07/10 00:38:16;;;;;;;28.27;25.77;;;20.70;99.90;;;;;;5100740;28;20462;-60
2023/07/10 00:40:46;;;;;;;25.87;23.67;;;20.70;99.90;;;;;;5100163;28;21003;-60
2023/07/10 00:43:27;;;;;;;26.93;24.40;;;20.70;99.90;;;;;;5100948;28;20466;-60
2023/07/10 00:45:59;;;;;;;28.77;26.00;;;20.60;99.90;;;;;;5099906;28;20498;-60
2023/07/10 00:48:35;;;;;;;29.83;26.73;;;20.50;99.90;;;;;;5100567;28;20551;-59
2023/07/10 00:51:10;;;;;;;32.50;29.20;;;20.50;99.90;;;;;;5100355;28;20466;-61
2023/07/10 00:53:41;;;;;;;45.23;39.07;;;20.60;99.90;;;;;;5100494;28;20554;-60
2023/07/10 00:56:14;;;;;;;48.27;41.10;;;20.60;99.90;;;;;;5100599;28;20948;-59
2023/07/10 00:58:44;;;;;;;54.67;47.47;;;20.70;99.90;;;;;;5100484;28;20456;-60
2023/07/10 01:01:15;;;;;;;58.67;48.13;;;20.80;99.90;;;;;;5100258;28;20491;-60
2023/07/10 01:03:43;;;;;;;55.00;46.43;;;20.80;99.90;;;;;;5100071;28;20503;-60
2023/07/10 01:06:17;;;;;;;58.03;46.80;;;20.80;99.90;;;;;;5100499;28;20558;-60
2023/07/10 01:08:50;;;;;;;48.33;41.60;;;20.80;99.90;;;;;;5099928;28;20464;-60
2023/07/10 01:11:18;;;;;;;52.27;43.57;;;20.80;99.90;;;;;;5100114;28;20467;-61
2023/07/10 01:13:49;;;;;;;47.20;42.10;;;20.90;99.90;;;;;;5100283;28;20916;-60
2023/07/10 01:16:19;;;;;;;48.37;42.13;;;20.90;99.90;;;;;;5100119;28;20567;-60
2023/07/10 01:18:46;;;;;;;47.17;39.70;;;20.90;99.90;;;;;;5099714;28;20529;-60
2023/07/10 01:21:23;;;;;;;47.73;40.57;;;20.90;99.90;;;;;;5099714;28;20560;-60
2023/07/10 01:23:50;;;;;;;44.67;38.57;;;20.90;99.90;;;;;;5099681;28;20471;-60
2023/07/10 01:26:17;;;;;;;45.07;37.40;;;21.00;99.90;;;;;;5100177;28;20466;-60
2023/07/10 01:28:46;;;;;;;44.70;37.40;;;21.00;99.90;;;;;;5099468;28;20463;-60
2023/07/10 01:31:17;;;;;;;40.87;36.57;;;21.00;99.90;;;;;;5099461;28;20466;-61
2023/07/10 01:33:48;;;;;;;49.60;39.70;;;20.90;99.90;;;;;;5100079;28;20456;-61
2023/07/10 01:36:20;;;;;;;43.03;36.97;;;20.90;99.90;;;;;;5099897;28;20470;-60
2023/07/10 01:38:50;;;;;;;57.33;45.10;;;21.00;99.90;;;;;;5099343;28;20460;-60
2023/07/10 01:41:31;;;;;;;55.00;44.10;;;21.00;99.90;;;;;;5099372;28;20473;-60
2023/07/10 01:43:58;;;;;;;55.53;43.43;;;20.90;99.90;;;;;;5099509;28;20881;-61
2023/07/10 01:46:28;;;;;;;52.80;42.40;;;20.90;99.90;;;;;;5099481;28;20828;-61
2023/07/10 01:48:58;;;;;;;57.37;47.10;;;21.00;99.90;;;;;;5098945;28;20439;-60
2023/07/10 01:51:27;;;;;;;63.30;47.20;;;21.00;99.90;;;;;;5099340;28;20456;-60
2023/07/10 01:54:00;;;;;;;61.90;47.60;;;20.90;99.90;;;;;;5099147;28;20460;-61
2023/07/10 01:56:28;;;;;;;52.67;43.57;;;20.80;99.90;;;;;;5099582;28;20460;-61
2023/07/10 01:58:55;;;;;;;57.70;45.70;;;20.80;99.90;;;;;;5099243;28;20461;-60
2023/07/10 02:01:22;;;;;;;55.47;45.03;;;20.90;99.90;;;;;;5098877;28;20511;-60
2023/07/10 02:03:49;;;;;;;60.80;49.00;;;20.90;99.90;;;;;;5098895;28;20558;-61
2023/07/10 02:06:17;;;;;;;59.93;46.40;;;20.90;99.90;;;;;;5094913;28;20453;-60
2023/07/10 02:08:46;;;;;;;64.20;47.63;;;21.00;99.90;;;;;;5078447;28;20970;-61
2023/07/10 02:11:14;;;;;;;61.03;49.93;;;20.90;99.90;;;;;;5078554;28;20453;-61
2023/07/10 02:13:41;;;;;;;59.17;50.07;;;20.90;99.90;;;;;;5078672;28;20436;-61
2023/07/10 02:16:12;;;;;;;58.47;51.03;;;20.90;99.90;;;;;;5078616;28;20492;-65
2023/07/10 02:18:39;;;;;;;59.00;52.00;;;20.80;99.90;;;;;;5078433;28;20465;-61
2023/07/10 02:21:07;;;;;;;59.17;52.53;;;20.70;99.90;;;;;;5078487;28;20471;-60
2023/07/10 02:23:35;;;;;;;61.70;53.53;;;20.70;99.90;;;;;;5078492;28;20461;-61
2023/07/10 02:26:03;;;;;;;60.03;53.57;;;20.80;99.90;;;;;;5078680;28;20543;-60
2023/07/10 02:28:30;;;;;;;58.73;52.07;;;20.70;99.90;;;;;;5078377;28;20767;-60
2023/07/10 02:30:58;;;;;;;57.77;51.97;;;20.70;99.90;;;;;;5078094;28;20461;-60
2023/07/10 02:33:25;;;;;;;53.47;48.07;;;20.60;99.90;;;;;;5077673;28;20500;-60
2023/07/10 02:35:52;;;;;;;54.00;48.47;;;20.60;99.90;;;;;;5078295;28;20838;-60
2023/07/10 02:38:19;;;;;;;52.37;47.07;;;20.60;99.90;;;;;;5078165;28;20461;-61
2023/07/10 02:40:46;;;;;;;54.77;48.67;;;20.50;99.90;;;;;;5077642;28;20560;-60
2023/07/10 02:43:15;;;;;;;52.37;46.80;;;20.50;99.90;;;;;;5077892;28;20891;-60
2023/07/10 02:45:42;;;;;;;49.03;43.70;;;20.50;99.90;;;;;;5077802;28;20493;-61
2023/07/10 02:48:10;;;;;;;51.80;45.87;;;20.40;99.90;;;;;;5077696;28;20556;-60
2023/07/10 02:50:37;;;;;;;51.27;43.70;;;20.30;99.90;;;;;;5078016;28;20485;-59
2023/07/10 02:53:04;;;;;;;50.83;42.83;;;20.30;99.90;;;;;;5077732;28;20461;-60
2023/07/10 02:55:31;;;;;;;55.40;42.97;;;20.30;99.90;;;;;;5077740;28;20504;-60
2023/07/10 02:57:58;;;;;;;52.13;42.70;;;20.20;99.90;;;;;;5077995;28;20699;-61
2023/07/10 03:00:27;;;;;;;60.97;48.83;;;20.10;99.90;;;;;;5077776;28;20933;-60
2023/07/10 03:02:55;;;;;;;68.63;49.10;;;20.00;99.90;;;;;;5077438;28;20580;-60
2023/07/10 03:05:22;;;;;;;75.43;49.87;;;20.20;99.90;;;;;;5077350;28;20461;-61
2023/07/10 03:07:49;;;;;;;63.63;46.27;;;20.10;99.90;;;;;;5077676;28;20469;-60
2023/07/10 03:10:17;;;;;;;62.13;48.33;;;20.10;99.90;;;;;;5077604;28;20721;-60
2023/07/10 03:12:44;;;;;;;61.53;47.60;;;20.10;99.90;;;;;;5077879;28;20811;-60
2023/07/10 03:15:12;;;;;;;64.00;49.50;;;20.10;99.90;;;;;;5077128;28;20461;-60
2023/07/10 03:17:41;;;;;;;63.00;47.80;;;20.10;99.90;;;;;;5077379;28;20442;-61
2023/07/10 03:20:10;;;;;;;65.90;47.50;;;20.10;99.90;;;;;;5077758;28;20487;-59
2023/07/10 03:22:37;;;;;;;65.07;48.50;;;20.00;99.90;;;;;;5077715;28;20863;-60
2023/07/10 03:25:05;;;;;;;61.60;45.93;;;20.00;99.90;;;;;;5076820;28;20501;-60
2023/07/10 03:27:32;;;;;;;61.03;47.63;;;20.10;99.90;;;;;;5077252;28;20535;-60
2023/07/10 03:30:00;;;;;;;65.30;48.73;;;20.10;99.90;;;;;;5077726;28;20540;-61
2023/07/10 03:32:27;;;;;;;63.60;47.10;;;20.10;99.90;;;;;;5077586;28;20461;-60
2023/07/10 03:34:58;;;;;;;63.20;48.33;;;20.20;99.90;;;;;;5076991;28;20534;-60
2023/07/10 03:37:25;;;;;;;60.40;47.83;;;20.10;99.90;;;;;;5077339;28;20542;-60
2023/07/10 03:39:52;;;;;;;58.13;42.80;;;20.00;99.90;;;;;;5077343;28;20485;-60
2023/07/10 03:42:19;;;;;;;59.47;45.10;;;20.00;99.90;;;;;;5076895;28;20477;-60
2023/07/10 03:44:47;;;;;;;61.30;47.23;;;20.00;99.90;;;;;;5076567;28;20432;-60
2023/07/10 03:47:14;;;;;;;58.47;45.00;;;20.00;99.90;;;;;;5076641;28;20468;-60
2023/07/10 03:49:41;;;;;;;51.00;43.20;;;20.00;99.90;;;;;;5076910;28;20985;-60
2023/07/10 03:52:10;;;;;;;46.87;41.07;;;19.90;99.90;;;;;;5076942;28;20461;-61
2023/07/10 03:54:37;;;;;;;50.80;42.80;;;19.80;99.90;;;;;;5077272;28;20472;-61
2023/07/10 03:57:05;;;;;;;52.97;47.27;;;19.80;99.90;;;;;;5077004;28;20465;-60
2023/07/10 03:59:32;;;;;;;63.10;48.80;;;19.80;99.90;;;;;;5078958;28;20547;-60
2023/07/10 04:01:59;;;;;;;68.20;56.43;;;19.80;99.90;;;;;;5081040;28;20497;-60
2023/07/10 04:04:26;;;;;;;68.97;55.73;;;19.80;99.90;;;;;;5081253;28;20465;-60
2023/07/10 04:06:53;;;;;;;63.73;52.27;;;19.70;99.90;;;;;;5080703;28;20471;-61
2023/07/10 04:09:22;;;;;;;74.47;56.73;;;19.70;99.90;;;;;;5080333;28;20960;-61
2023/07/10 04:11:50;;;;;;;74.87;57.63;;;19.70;99.90;;;;;;5081207;28;20544;-61
2023/07/10 04:14:17;;;;;;;79.80;57.10;;;19.70;99.90;;;;;;5080858;28;20440;-61
2023/07/10 04:16:44;;;;;;;78.67;55.33;;;19.50;99.90;;;;;;5080856;28;20552;-61
2023/07/10 04:19:11;;;;;;;82.63;59.03;;;19.50;99.90;;;;;;5080582;28;20436;-60
2023/07/10 04:21:39;;;;;;;80.20;58.70;;;19.40;99.90;;;;;;5080541;28;20488;-62
2023/07/10 04:24:07;;;;;;;76.67;56.67;;;19.40;99.90;;;;;;5080701;28;20467;-61
2023/07/10 04:26:36;;;;;;;74.27;57.90;;;19.30;99.90;;;;;;5080214;28;20465;-61
2023/07/10 04:29:05;;;;;;;66.33;52.90;;;19.40;99.90;;;;;;5080134;28;20538;-59
2023/07/10 04:31:33;;;;;;;64.20;49.87;;;19.40;99.90;;;;;;5080353;28;20813;-60
2023/07/10 04:34:00;;;;;;;76.80;53.60;;;19.40;99.90;;;;;;5080434;28;20461;-60
2023/07/10 04:36:28;;;;;;;73.00;55.53;;;19.40;99.90;;;;;;5080305;28;20471;-60
2023/07/10 04:38:55;;;;;;;75.30;57.47;;;19.40;99.90;;;;;;5079641;28;20584;-60
2023/07/10 04:41:24;;;;;;;69.90;56.77;;;19.40;99.90;;;;;;5080208;28;20568;-61
2023/07/10 04:43:53;;;;;;;78.67;60.27;;;19.40;99.90;;;;;;5080328;28;20461;-60
2023/07/10 04:46:21;;;;;;;69.00;52.27;;;19.40;99.90;;;;;;5080227;28;20467;-61
2023/07/10 04:48:48;;;;;;;67.00;51.97;;;19.30;99.90;;;;;;5079982;28;20826;-60
2023/07/10 04:51:17;;;;;;;63.80;50.90;;;19.40;99.90;;;;;;5079870;28;20531;-60
2023/07/10 04:53:45;;;;;;;54.80;45.30;;;19.40;99.90;;;;;;5080291;28;20552;-60
2023/07/10 04:56:13;;;;;;;50.57;38.83;;;19.40;99.90;;;;;;5079682;28;20465;-61
2023/07/10 04:58:49;;;;;;;49.40;38.47;;;19.30;99.90;;;;;;5080148;28;20432;-59
2023/07/10 05:01:19;;;;;;;43.80;35.37;;;19.30;99.90;;;;;;5079880;28;20521;-60
2023/07/10 05:03:47;;;;;;;41.17;33.07;;;19.40;99.90;;;;;;5079820;28;20442;-59
2023/07/10 05:06:14;;;;;;;37.87;33.77;;;19.40;99.90;;;;;;5080322;28;20740;-59
2023/07/10 05:08:42;;;;;;;35.83;31.53;;;19.50;99.90;;;;;;5079983;28;20846;-59
2023/07/10 05:11:09;;;;;;;34.53;29.67;;;19.40;99.90;;;;;;5079295;28;20907;-59
2023/07/10 05:13:36;;;;;;;33.43;29.53;;;19.40;99.90;;;;;;5079996;28;20500;-59
2023/07/10 05:16:04;;;;;;;33.67;30.00;;;19.40;99.90;;;;;;5079976;28;20465;-58
2023/07/10 05:18:33;;;;;;;37.00;30.00;;;19.30;99.90;;;;;;5080081;28;20436;-59
2023/07/10 05:21:00;;;;;;;33.20;29.60;;;19.50;99.90;;;;;;5079585;28;20507;-58
2023/07/10 05:23:28;;;;;;;32.67;29.37;;;19.50;99.90;;;;;;5079289;28;20588;-58
2023/07/10 05:25:58;;;;;;;34.57;30.50;;;19.30;99.90;;;;;;5079278;28;20893;-59
2023/07/10 05:28:26;;;;;;;33.43;30.00;;;19.40;99.90;;;;;;5079576;28;20557;-59
2023/07/10 05:30:54;;;;;;;33.33;29.83;;;19.60;99.90;;;;;;5079046;28;20552;-59
2023/07/10 05:33:21;;;;;;;34.40;31.00;;;19.60;99.90;;;;;;5079162;28;20461;-58
2023/07/10 05:35:55;;;;;;;32.90;29.40;;;19.70;99.90;;;;;;5079654;28;20508;-59
2023/07/10 05:38:24;;;;;;;31.57;28.30;;;19.70;99.90;;;;;;5079455;28;20821;-59
2023/07/10 05:40:52;;;;;;;29.57;26.37;;;19.70;99.90;;;;;;5078683;28;20547;-58
2023/07/10 05:43:19;;;;;;;28.80;25.90;;;19.70;99.90;;;;;;5078910;28;20497;-59
2023/07/10 05:45:47;;;;;;;28.50;25.70;;;19.70;99.90;;;;;;5079480;28;20744;-58
2023/07/10 05:48:15;;;;;;;29.93;27.03;;;19.80;99.90;;;;;;5079526;28;20564;-59
2023/07/10 05:50:44;;;;;;;28.43;25.63;;;19.70;99.90;;;;;;5079237;28;20792;-60
2023/07/10 05:53:13;;;;;;;29.37;26.37;;;19.70;99.90;;;;;;5078732;28;20795;-59
2023/07/10 05:55:44;;;;;;;27.87;24.97;;;19.70;99.90;;;;;;5078778;28;20465;-59
2023/07/10 05:58:12;;;;;;;29.00;26.20;;;19.70;99.90;;;;;;5079271;28;20469;-59
2023/07/10 06:00:39;;;;;;;29.43;26.60;;;19.60;99.90;;;;;;5079674;28;20552;-59
2023/07/10 06:03:06;;;;;;;29.63;25.97;;;19.60;99.90;;;;;;5078662;28;20840;-60
2023/07/10 06:05:33;;;;;;;27.37;24.47;;;19.60;99.90;;;;;;5078611;28;20480;-60
2023/07/10 06:08:01;;;;;;;28.20;25.53;;;19.70;99.90;;;;;;5078729;28;20535;-60
2023/07/10 06:10:30;;;;;;;28.10;25.10;;;19.70;99.90;;;;;;5078779;28;20796;-59
2023/07/10 06:12:57;;;;;;;27.27;24.50;;;19.70;99.90;;;;;;5078513;28;20453;-60
2023/07/10 06:15:25;;;;;;;27.83;25.07;;;19.60;99.90;;;;;;5078624;28;20469;-60
2023/07/10 06:17:52;;;;;;;30.13;27.10;;;19.70;99.90;;;;;;5078453;28;20492;-60
2023/07/10 06:20:19;;;;;;;30.53;27.47;;;19.70;99.90;;;;;;5077871;28;20777;-60
2023/07/10 06:22:46;;;;;;;32.90;29.50;;;19.70;99.90;;;;;;5075593;28;20513;-60
2023/07/10 06:25:14;;;;;;;33.17;29.77;;;19.80;99.90;;;;;;5077591;28;20475;-60
2023/07/10 06:27:43;;;;;;;35.40;31.67;;;19.80;99.90;;;;;;5078282;28;20465;-61
2023/07/10 06:30:11;;;;;;;33.00;29.03;;;19.70;99.90;;;;;;5078301;28;20497;-60
2023/07/10 06:32:38;;;;;;;35.47;31.67;;;19.80;99.90;;;;;;5078356;28;20853;-60
2023/07/10 06:35:06;;;;;;;35.93;32.10;;;19.90;99.90;;;;;;5078129;28;20461;-61
2023/07/10 06:37:33;;;;;;;33.67;30.33;;;20.10;99.90;;;;;;5078498;28;20462;-61
2023/07/10 06:40:09;;;;;;;31.47;28.07;;;20.10;99.90;;;;;;5077795;28;20500;-60
2023/07/10 06:42:36;;;;;;;30.13;27.03;;;20.30;99.90;;;;;;5078090;28;20492;-59
2023/07/10 06:45:06;;;;;;;30.37;27.17;;;20.40;99.90;;;;;;5077630;28;20500;-60
2023/07/10 06:47:39;;;;;;;30.73;27.73;;;20.40;1.00;;;;;;5078017;28;20496;-60
2023/07/10 06:50:07;;;;;;;28.53;25.83;;;20.30;99.90;;;;;;5078306;28;20461;-60
2023/07/10 06:52:38;;;;;;;27.20;24.53;;;20.20;99.90;;;;;;5078182;28;20464;-60
2023/07/10 06:55:06;;;;;;;29.70;25.13;;;20.20;99.90;;;;;;5084711;28;20932;-60
2023/07/10 06:57:34;;;;;;;26.30;23.70;;;20.20;99.90;;;;;;5097994;28;20465;-61
2023/07/10 07:00:01;;;;;;;25.70;22.90;;;20.20;99.90;;;;;;5098020;28;20438;-63
2023/07/10 07:02:30;;;;;;;13.83;12.60;;;20.00;1.00;;;;;;5097927;28;20933;-62
2023/07/10 07:04:58;;;;;;;11.17;9.17;;;19.50;88.70;;;;;;5097559;28;20551;-62
2023/07/10 07:07:25;;;;;;;8.87;7.97;;;19.20;99.90;;;;;;5098016;28;20471;-61
2023/07/10 07:09:52;;;;;;;9.20;7.97;;;19.20;1.00;;;;;;5097847;28;20513;-61
2023/07/10 07:12:20;;;;;;;9.60;8.60;;;19.10;86.00;;;;;;5097941;28;20901;-61
2023/07/10 07:14:47;;;;;;;10.60;9.60;;;19.00;1.00;;;;;;5097506;28;20460;-61
2023/07/10 07:17:15;;;;;;;17.23;11.03;;;19.00;1.00;;;;;;5096800;28;20464;-61
2023/07/10 07:19:45;;;;;;;15.07;13.53;;;19.00;51.00;;;;;;5096886;28;20519;-60
2023/07/10 07:22:13;;;;;;;13.77;12.37;;;19.20;99.90;;;;;;5097218;28;20464;-60
2023/07/10 07:24:40;;;;;;;15.50;14.10;;;19.50;99.90;;;;;;5096763;28;20483;-61
2023/07/10 07:27:08;;;;;;;14.53;13.27;;;19.70;75.80;;;;;;5095673;28;20471;-60
2023/07/10 07:29:35;;;;;;;17.03;15.57;;;19.80;99.90;;;;;;5096106;28;20547;-60
2023/07/10 07:32:03;;;;;;;19.30;17.47;;;20.00;1.00;;;;;;5096257;28;20555;-61
2023/07/10 07:34:30;;;;;;;25.23;22.83;;;19.90;1.00;;;;;;5096362;28;20434;-59
2023/07/10 07:36:59;;;;;;;26.27;23.63;;;20.10;99.90;;;;;;5096325;28;20453;-60
2023/07/10 07:39:30;;;;;;;25.50;23.23;;;20.20;99.90;;;;;;5096278;28;20486;-60
2023/07/10 07:41:58;;;;;;;22.93;20.83;;;20.00;1.00;;;;;;5096563;28;20460;-60
2023/07/10 07:44:25;;;;;;;23.00;20.93;;;20.10;99.90;;;;;;5095973;28;20492;-60
2023/07/10 07:46:52;;;;;;;28.37;25.57;;;20.10;1.00;;;;;;5095755;28;20438;-60
2023/07/10 07:49:21;;;;;;;29.93;27.13;;;20.10;1.00;;;;;;5095165;28;20492;-61
2023/07/10 07:51:48;;;;;;;29.70;26.60;;;20.20;1.00;;;;;;5095549;28;20471;-60
2023/07/10 07:54:17;;;;;;;26.30;23.70;;;20.20;1.00;;;;;;5095737;28;20427;-60
2023/07/10 07:56:44;;;;;;;25.80;23.17;;;20.20;99.90;;;;;;5095579;28;20453;-59
2023/07/10 07:59:12;;;;;;;25.03;22.57;;;20.40;1.00;;;;;;5097128;28;20510;-60
2023/07/10 08:01:39;;;;;;;25.60;22.93;;;20.40;99.90;;;;;;5096497;28;20492;-60
2023/07/10 08:04:06;;;;;;;29.17;23.50;;;20.40;99.90;;;;;;5097253;28;20880;-60
2023/07/10 08:06:34;;;;;;;22.07;19.77;;;20.50;99.90;;;;;;5096738;28;20555;-61
2023/07/10 08:09:03;;;;;;;17.53;15.77;;;20.50;99.90;;;;;;5097273;28;20559;-61
2023/07/10 08:11:32;;;;;;;18.60;16.90;;;20.40;1.00;;;;;;5096862;28;20514;-61
2023/07/10 08:13:59;;;;;;;23.40;19.40;;;20.50;99.90;;;;;;5097048;28;20431;-61
2023/07/10 08:16:26;;;;;;;15.53;14.10;;;21.10;99.90;;;;;;5097056;28;20464;-63
2023/07/10 08:18:54;;;;;;;17.33;12.47;;;21.20;1.00;;;;;;5097141;28;20855;-63
2023/07/10 08:21:21;;;;;;;12.70;10.10;;;21.30;1.00;;;;;;5097003;28;20519;-63
2023/07/10 08:23:48;;;;;;;13.60;10.17;;;21.10;1.00;;;;;;5096121;28;20484;-64
2023/07/10 08:26:16;;;;;;;11.73;10.40;;;21.30;1.00;;;;;;5096884;28;20815;-64
2023/07/10 08:28:45;;;;;;;12.30;10.00;;;21.50;1.00;;;;;;5096666;28;20578;-63
2023/07/10 08:31:12;;;;;;;9.90;8.90;;;21.80;1.00;;;;;;5096628;28;20551;-64
2023/07/10 08:33:40;;;;;;;10.27;8.80;;;22.20;1.00;;;;;;5096781;28;20491;-65
2023/07/10 08:36:08;;;;;;;9.07;6.57;;;22.90;99.90;;;;;;5096302;28;20460;-65
2023/07/10 08:38:37;;;;;;;7.63;6.93;;;23.70;1.00;;;;;;5097016;28;20460;-65
2023/07/10 08:41:18;;;;;;;6.50;5.80;;;23.70;99.90;;;;;;5096998;28;20470;-65
2023/07/10 08:43:47;;;;;;;8.17;6.93;;;24.10;99.90;;;;;;5096648;28;20492;-64
2023/07/10 08:46:19;;;;;;;6.73;4.70;;;24.60;99.90;;;;;;5099901;28;20504;-64
2023/07/10 08:48:53;;;;;;;6.77;4.57;;;23.90;99.90;;;;;;5099604;28;20579;-65
2023/07/10 08:51:40;;;;;;;6.80;4.10;;;23.00;99.90;;;;;;5100484;28;20903;-64
2023/07/10 08:54:11;;;;;;;5.50;5.00;;;23.40;99.90;;;;;;5100852;28;20507;-65
2023/07/10 08:56:44;;;;;;;8.80;5.00;;;23.90;99.90;;;;;;5099311;28;20439;-66
2023/07/10 08:59:46;;;;;;;5.13;4.43;;;24.20;99.90;;;;;;5100121;28;20468;-66
2023/07/10 09:02:25;;;;;;;7.93;5.60;;;24.60;99.90;;;;;;5100730;28;20506;-66
2023/07/10 09:04:53;;;;;;;8.30;7.60;;;24.20;99.90;;;;;;5100378;28;20869;-66
2023/07/10 09:07:21;;;;;;;12.33;11.43;;;25.10;99.90;;;;;;5098846;28;20492;-67
2023/07/10 09:09:52;;;;;;;13.10;12.00;;;25.80;99.90;;;;;;5100033;28;20462;-66
2023/07/10 09:12:24;;;;;;;13.03;11.90;;;26.40;99.90;;;;;;5098890;28;20864;-65
2023/07/10 09:15:00;;;;;;;11.57;10.50;;;26.60;99.90;;;;;;5099606;28;20518;-66
2023/07/10 09:17:45;;;;;;;13.90;12.60;;;26.60;99.90;;;;;;5100300;28;20825;-64
2023/07/10 09:20:12;;;;;;;14.80;13.50;;;26.70;99.90;;;;;;5100448;28;20843;-63
2023/07/10 09:22:46;;;;;;;13.27;11.67;;;26.30;99.90;;;;;;5099533;28;20452;-65
2023/07/10 09:25:15;;;;;;;11.53;10.50;;;25.30;99.90;;;;;;5099963;28;20790;-66
2023/07/10 09:27:43;;;;;;;10.27;9.27;;;25.30;99.90;;;;;;5100230;28;20468;-65
2023/07/10 09:30:26;;;;;;;8.30;7.50;;;25.50;99.90;;;;;;5099876;28;20438;-64
2023/07/10 09:33:00;;;;;;;8.33;7.40;;;26.00;99.90;;;;;;5099550;28;20757;-64
2023/07/10 09:35:27;;;;;;;9.70;6.50;;;25.20;99.90;;;;;;5099654;28;20948;-64
2023/07/10 09:37:55;;;;;;;7.10;6.40;;;25.20;99.90;;;;;;5099711;28;20474;-63
2023/07/10 09:40:39;;;;;;;8.53;7.13;;;25.20;99.90;;;;;;5099304;28;20578;-64
2023/07/10 09:43:13;;;;;;;6.73;5.80;;;25.00;99.90;;;;;;5099165;28;20495;-63
2023/07/10 09:45:45;;;;;;;6.60;5.67;;;25.30;99.90;;;;;;5099382;28;20507;-64
2023/07/10 09:48:25;;;;;;;5.43;4.60;;;25.60;99.90;;;;;;5099141;28;20551;-65
2023/07/10 09:50:54;;;;;;;6.57;4.33;;;25.50;99.90;;;;;;5098941;28;20464;-64
2023/07/10 09:53:29;;;;;;;4.70;4.30;;;26.00;99.90;;;;;;5099122;28;20452;-64
2023/07/10 09:55:56;;;;;;;4.33;3.93;;;26.50;99.90;;;;;;5099214;28;20502;-64
2023/07/10 09:58:24;;;;;;;9.70;5.03;;;26.90;99.90;;;;;;5099367;28;20507;-65
2023/07/10 10:00:53;;;;;;;4.97;3.53;;;26.40;99.90;;;;;;5098758;28;20460;-64
2023/07/10 10:03:25;;;;;;;5.03;3.80;;;26.30;99.90;;;;;;5098991;28;20975;-62
2023/07/10 10:05:55;;;;;;;4.23;3.80;;;26.50;99.90;;;;;;5099346;28;20460;-64
2023/07/10 10:08:26;;;;;;;6.07;4.23;;;27.00;99.90;;;;;;5098635;28;20460;-67
2023/07/10 10:11:05;;;;;;;4.00;3.43;;;27.20;99.90;;;;;;5098851;28;20559;-64
2023/07/10 10:13:37;;;;;;;5.90;3.80;;;27.00;99.90;;;;;;5099009;28;20494;-65
2023/07/10 10:16:09;;;;;;;3.83;3.40;;;26.50;99.90;;;;;;5098962;28;20873;-65
2023/07/10 10:18:44;;;;;;;5.00;3.90;;;25.90;99.90;;;;;;5098975;28;20486;-64
2023/07/10 10:21:14;;;;;;;6.40;3.70;;;25.70;99.90;;;;;;5098494;28;20537;-64
2023/07/10 10:23:43;;;;;;;4.20;3.80;;;26.60;99.90;;;;;;5098614;28;21002;-65
2023/07/10 10:26:33;;;;;;;4.23;3.83;;;27.50;99.90;;;;;;5098976;28;20537;-64
2023/07/10 10:29:23;;;;;;;3.73;3.20;;;28.30;99.90;;;;;;5098301;28;20496;-65
2023/07/10 10:31:58;;;;;;;4.10;3.47;;;28.50;99.90;;;;;;5098635;28;20529;-64
2023/07/10 10:34:47;;;;;;;4.53;3.30;;;27.80;99.90;;;;;;5098186;28;20847;-64
2023/07/10 10:37:31;;;;;;;4.33;3.80;;;27.90;99.90;;;;;;5095401;28;20496;-65
2023/07/10 10:40:05;;;;;;;4.43;3.27;;;28.70;99.90;;;;;;5094747;28;20496;-66
2023/07/10 10:42:40;;;;;;;3.57;3.27;;;29.10;99.90;;;;;;5098564;28;20972;-62
2023/07/10 10:45:15;;;;;;;4.97;3.23;;;28.70;99.90;;;;;;5097647;28;20491;-64
2023/07/10 10:47:52;;;;;;;4.53;3.03;;;28.50;99.90;;;;;;5098374;28;20900;-64
2023/07/10 10:50:32;;;;;;;5.70;3.40;;;28.60;99.90;;;;;;5097906;28;20499;-66
2023/07/10 10:53:17;;;;;;;3.50;3.17;;;26.90;99.90;;;;;;5097031;28;20569;-62
2023/07/10 10:55:51;;;;;;;5.03;3.53;;;27.30;99.90;;;;;;5097841;28;20562;-64
2023/07/10 10:58:28;;;;;;;3.33;3.03;;;27.30;99.90;;;;;;5098179;28;20460;-63
2023/07/10 11:01:12;;;;;;;2.93;2.73;;;27.10;99.90;;;;;;5097336;28;20760;-62
2023/07/10 11:03:45;;;;;;;4.40;2.97;;;27.10;99.90;;;;;;5093103;28;20522;-63
2023/07/10 11:06:47;;;;;;;4.00;3.43;;;27.10;99.90;;;;;;5096352;28;20796;-63
2023/07/10 11:09:17;;;;;;;4.53;3.50;;;26.80;99.90;;;;;;5077104;28;20457;-62
2023/07/10 11:11:44;;;;;;;3.50;2.77;;;27.60;99.90;;;;;;5077296;28;20492;-62
2023/07/10 11:14:13;;;;;;;3.07;2.73;;;27.70;99.90;;;;;;5077660;28;20515;-63
2023/07/10 11:16:42;;;;;;;4.27;2.93;;;27.50;99.90;;;;;;5077566;28;20551;-64
2023/07/10 11:19:16;;;;;;;5.00;2.60;;;27.60;99.90;;;;;;5075678;28;20461;-61
2023/07/10 11:21:46;;;;;;;4.20;2.60;;;28.30;99.90;;;;;;5076762;28;20560;-64
2023/07/10 11:24:16;;;;;;;3.33;2.43;;;28.60;99.90;;;;;;5077248;28;20493;-63
2023/07/10 11:26:44;;;;;;;4.20;3.23;;;28.60;99.90;;;;;;5076120;28;20457;-64
2023/07/10 11:29:30;;;;;;;4.03;3.07;;;29.30;99.90;;;;;;5075041;28;20461;-63
2023/07/10 11:31:59;;;;;;;4.47;3.33;;;30.10;99.90;;;;;;5075836;28;20961;-62
2023/07/10 11:34:50;;;;;;;7.13;3.40;;;29.60;99.90;;;;;;5075999;28;20555;-62
2023/07/10 11:38:01;;;;;;;3.73;2.97;;;29.50;99.90;;;;;;5075773;28;20465;-63
2023/07/10 11:40:52;;;;;;;2.93;2.73;;;29.40;99.90;;;;;;5075334;28;20789;-63
2023/07/10 11:43:54;;;;;;;3.97;3.33;;;29.20;99.90;;;;;;5076965;28;20465;-62
2023/07/10 11:46:32;;;;;;;6.90;3.10;;;28.30;99.90;;;;;;5077193;28;20510;-61
2023/07/10 11:49:17;;;;;;;4.17;3.03;;;28.30;99.90;;;;;;5076736;28;20457;-62
2023/07/10 11:52:28;;;;;;;5.37;3.07;;;28.60;99.90;;;;;;5077012;28;20480;-62
2023/07/10 11:55:26;;;;;;;4.27;3.10;;;29.60;99.90;;;;;;5095307;28;20551;-62
2023/07/10 11:58:24;;;;;;;4.00;2.80;;;30.20;99.90;;;;;;5096649;28;20513;-63
2023/07/10 12:00:54;;;;;;;4.80;3.20;;;29.60;99.90;;;;;;5095112;28;20467;-62
2023/07/10 12:03:21;;;;;;;3.13;2.80;;;29.60;99.90;;;;;;5095121;28;20457;-62
2023/07/10 12:05:50;;;;;;;4.10;2.47;;;29.60;99.90;;;;;;5094913;28;20514;-63
2023/07/10 12:08:19;;;;;;;3.63;3.33;;;29.90;99.90;;;;;;5095435;28;20460;-62
2023/07/10 12:10:48;;;;;;;3.10;2.87;;;30.10;99.90;;;;;;5094703;28;20456;-62
2023/07/10 12:13:22;;;;;;;4.53;3.33;;;30.40;99.90;;;;;;5094895;28;20465;-61
2023/07/10 12:15:52;;;;;;;4.13;3.07;;;30.30;99.90;;;;;;5096391;28;20460;-62
2023/07/10 12:18:24;;;;;;;4.17;3.43;;;31.10;99.90;;;;;;5078226;28;20458;-61
2023/07/10 12:20:52;;;;;;;3.17;2.67;;;31.30;99.90;;;;;;5099006;28;20466;-62
2023/07/10 12:23:21;;;;;;;3.50;2.70;;;29.70;99.90;;;;;;5100111;28;20881;-60
2023/07/10 12:25:50;;;;;;;3.80;2.83;;;28.90;99.90;;;;;;5098003;28;21030;-62
2023/07/10 12:28:19;;;;;;;5.23;3.30;;;29.00;99.90;;;;;;5097997;28;20472;-62
2023/07/10 12:30:50;;;;;;;3.80;3.40;;;29.10;99.90;;;;;;5097671;28;20897;-61
2023/07/10 12:33:37;;;;;;;3.37;2.70;;;28.90;99.90;;;;;;5098082;28;20885;-60
2023/07/10 12:36:18;;;;;;;3.30;2.90;;;28.10;99.90;;;;;;5101472;28;20464;-59
2023/07/10 12:38:48;;;;;;;3.37;2.80;;;28.10;99.90;;;;;;5098710;28;20460;-60
2023/07/10 12:41:18;;;;;;;3.00;2.70;;;27.70;99.90;;;;;;5099348;28;20570;-58
2023/07/10 12:43:48;;;;;;;4.57;3.40;;;27.60;99.90;;;;;;5099237;28;20435;-61
2023/07/10 12:46:17;;;;;;;3.70;2.90;;;28.30;99.90;;;;;;5098297;28;21006;-60
2023/07/10 12:48:46;;;;;;;5.50;3.27;;;29.10;99.90;;;;;;5099255;28;20471;-59
2023/07/10 12:51:21;;;;;;;3.30;3.00;;;29.50;99.90;;;;;;5099182;28;20649;-59